sensor_id;sensor_type;location;lat;lon;timestamp;P1;durP1;ratioP1;P2;durP2;ratioP2
7116;SDS011;3600;48.568;7.870;2023-01-01T00:01:39;8.10;;;7.18;;
7116;SDS011;3600;48.568;7.870;2023-01-01T00:04:10;8.10;;;7.30;;
7116;SDS011;3600;48.568;7.870;2023-01-01T00:06:38;9.40;;;7.68;;
7116;SDS011;3600;48.568;7.870;2023-01-01T00:09:05;10.32;;;8.32;;
7116;SDS011;3600;48.568;7.870;2023-01-01T00:11:50;9.45;;;8.40;;
7116;SDS011;3600;48.568;7.870;2023-01-01T00:14:17;11.18;;;9.25;;
7116;SDS011;3600;48.568;7.870;2023-01-01T00:16:44;13.00;;;10.77;;
7116;SDS011;3600;48.568;7.870;2023-01-01T00:19:11;13.80;;;10.55;;
7116;SDS011;3600;48.568;7.870;2023-01-01T00:21:37;12.55;;;8.90;;
7116;SDS011;3600;48.568;7.870;2023-01-01T00:24:05;10.90;;;9.73;;
7116;SDS011;3600;48.568;7.870;2023-01-01T00:26:32;12.32;;;9.43;;
7116;SDS011;3600;48.568;7.870;2023-01-01T00:29:01;10.00;;;8.50;;
7116;SDS011;3600;48.568;7.870;2023-01-01T00:31:29;9.23;;;7.60;;
7116;SDS011;3600;48.568;7.870;2023-01-01T00:33:56;9.98;;;7.28;;
7116;SDS011;3600;48.568;7.870;2023-01-01T00:36:24;7.22;;;5.93;;
7116;SDS011;3600;48.568;7.870;2023-01-01T00:38:52;7.93;;;5.63;;
7116;SDS011;3600;48.568;7.870;2023-01-01T00:41:19;6.90;;;4.93;;
7116;SDS011;3600;48.568;7.870;2023-01-01T00:43:47;7.80;;;5.18;;
7116;SDS011;3600;48.568;7.870;2023-01-01T00:46:14;6.30;;;5.05;;
7116;SDS011;3600;48.568;7.870;2023-01-01T00:48:41;5.25;;;4.78;;
7116;SDS011;3600;48.568;7.870;2023-01-01T00:51:07;6.55;;;4.97;;
7116;SDS011;3600;48.568;7.870;2023-01-01T00:53:34;4.78;;;4.38;;
7116;SDS011;3600;48.568;7.870;2023-01-01T00:56:03;6.47;;;5.40;;
7116;SDS011;3600;48.568;7.870;2023-01-01T00:58:30;8.75;;;4.93;;
7116;SDS011;3600;48.568;7.870;2023-01-01T01:00:57;5.38;;;4.82;;
7116;SDS011;3600;48.568;7.870;2023-01-01T01:03:24;6.18;;;5.18;;
7116;SDS011;3600;48.568;7.870;2023-01-01T01:05:57;6.43;;;5.28;;
7116;SDS011;3600;48.568;7.870;2023-01-01T01:08:28;5.90;;;5.30;;
7116;SDS011;3600;48.568;7.870;2023-01-01T01:11:10;7.47;;;5.40;;
7116;SDS011;3600;48.568;7.870;2023-01-01T01:13:39;8.10;;;6.32;;
7116;SDS011;3600;48.568;7.870;2023-01-01T01:16:07;7.07;;;6.15;;
7116;SDS011;3600;48.568;7.870;2023-01-01T01:18:45;7.05;;;6.20;;
7116;SDS011;3600;48.568;7.870;2023-01-01T01:21:15;8.60;;;6.60;;
7116;SDS011;3600;48.568;7.870;2023-01-01T01:23:44;9.55;;;6.78;;
7116;SDS011;3600;48.568;7.870;2023-01-01T01:26:13;7.60;;;6.45;;
7116;SDS011;3600;48.568;7.870;2023-01-01T01:28:43;10.70;;;7.75;;
7116;SDS011;3600;48.568;7.870;2023-01-01T01:31:15;9.07;;;7.15;;
7116;SDS011;3600;48.568;7.870;2023-01-01T01:33:43;9.48;;;7.18;;
7116;SDS011;3600;48.568;7.870;2023-01-01T01:36:11;9.60;;;6.55;;
7116;SDS011;3600;48.568;7.870;2023-01-01T01:38:39;11.35;;;7.07;;
7116;SDS011;3600;48.568;7.870;2023-01-01T01:41:06;10.25;;;6.88;;
7116;SDS011;3600;48.568;7.870;2023-01-01T01:46:12;7.70;;;6.43;;
7116;SDS011;3600;48.568;7.870;2023-01-01T01:48:43;7.00;;;6.30;;
7116;SDS011;3600;48.568;7.870;2023-01-01T01:51:15;9.07;;;6.55;;
7116;SDS011;3600;48.568;7.870;2023-01-01T01:53:49;8.45;;;6.70;;
7116;SDS011;3600;48.568;7.870;2023-01-01T01:56:24;8.90;;;6.93;;
7116;SDS011;3600;48.568;7.870;2023-01-01T01:58:56;8.90;;;7.65;;
7116;SDS011;3600;48.568;7.870;2023-01-01T02:01:23;10.20;;;8.68;;
7116;SDS011;3600;48.568;7.870;2023-01-01T02:03:56;9.52;;;7.97;;
7116;SDS011;3600;48.568;7.870;2023-01-01T02:06:25;9.05;;;8.15;;
7116;SDS011;3600;48.568;7.870;2023-01-01T02:08:53;10.63;;;8.55;;
7116;SDS011;3600;48.568;7.870;2023-01-01T02:11:21;12.02;;;9.05;;
7116;SDS011;3600;48.568;7.870;2023-01-01T02:13:49;9.77;;;8.02;;
7116;SDS011;3600;48.568;7.870;2023-01-01T02:16:21;9.57;;;8.32;;
7116;SDS011;3600;48.568;7.870;2023-01-01T02:18:57;8.75;;;7.20;;
7116;SDS011;3600;48.568;7.870;2023-01-01T02:21:33;7.72;;;6.20;;
7116;SDS011;3600;48.568;7.870;2023-01-01T02:24:20;7.25;;;5.95;;
7116;SDS011;3600;48.568;7.870;2023-01-01T02:27:03;6.93;;;5.63;;
7116;SDS011;3600;48.568;7.870;2023-01-01T02:32:20;5.97;;;4.72;;
7116;SDS011;3600;48.568;7.870;2023-01-01T02:35:09;5.68;;;4.70;;
7116;SDS011;3600;48.568;7.870;2023-01-01T02:40:51;6.15;;;4.28;;
7116;SDS011;3600;48.568;7.870;2023-01-01T02:43:22;4.22;;;3.83;;
7116;SDS011;3600;48.568;7.870;2023-01-01T02:45:51;4.25;;;3.85;;
7116;SDS011;3600;48.568;7.870;2023-01-01T02:51:23;4.88;;;3.03;;
7116;SDS011;3600;48.568;7.870;2023-01-01T02:54:15;3.70;;;2.90;;
7116;SDS011;3600;48.568;7.870;2023-01-01T02:59:14;3.78;;;2.70;;
7116;SDS011;3600;48.568;7.870;2023-01-01T03:10:41;2.95;;;2.33;;
7116;SDS011;3600;48.568;7.870;2023-01-01T03:13:16;3.60;;;2.80;;
7116;SDS011;3600;48.568;7.870;2023-01-01T03:18:38;4.55;;;3.58;;
7116;SDS011;3600;48.568;7.870;2023-01-01T03:21:13;5.07;;;2.88;;
7116;SDS011;3600;48.568;7.870;2023-01-01T03:23:45;3.45;;;2.70;;
7116;SDS011;3600;48.568;7.870;2023-01-01T03:26:15;5.63;;;3.00;;
7116;SDS011;3600;48.568;7.870;2023-01-01T03:28:46;2.67;;;2.47;;
7116;SDS011;3600;48.568;7.870;2023-01-01T03:31:20;3.75;;;2.30;;
7116;SDS011;3600;48.568;7.870;2023-01-01T03:33:52;3.95;;;2.90;;
7116;SDS011;3600;48.568;7.870;2023-01-01T03:36:27;2.63;;;2.40;;
7116;SDS011;3600;48.568;7.870;2023-01-01T03:39:04;3.28;;;2.75;;
7116;SDS011;3600;48.568;7.870;2023-01-01T03:41:39;3.55;;;2.55;;
7116;SDS011;3600;48.568;7.870;2023-01-01T03:44:14;2.38;;;2.17;;
7116;SDS011;3600;48.568;7.870;2023-01-01T03:46:46;2.40;;;2.03;;
7116;SDS011;3600;48.568;7.870;2023-01-01T03:49:14;3.40;;;2.42;;
7116;SDS011;3600;48.568;7.870;2023-01-01T03:57:35;4.30;;;2.63;;
7116;SDS011;3600;48.568;7.870;2023-01-01T04:00:21;2.42;;;2.22;;
7116;SDS011;3600;48.568;7.870;2023-01-01T04:02:51;4.13;;;2.33;;
7116;SDS011;3600;48.568;7.870;2023-01-01T04:05:49;3.70;;;2.15;;
7116;SDS011;3600;48.568;7.870;2023-01-01T04:08:16;2.45;;;2.25;;
7116;SDS011;3600;48.568;7.870;2023-01-01T04:10:47;2.83;;;2.55;;
7116;SDS011;3600;48.568;7.870;2023-01-01T04:13:17;3.65;;;2.47;;
7116;SDS011;3600;48.568;7.870;2023-01-01T04:15:43;5.25;;;2.30;;
7116;SDS011;3600;48.568;7.870;2023-01-01T04:18:10;3.60;;;2.28;;
7116;SDS011;3600;48.568;7.870;2023-01-01T04:20:37;3.08;;;2.20;;
7116;SDS011;3600;48.568;7.870;2023-01-01T04:23:04;4.88;;;2.33;;
7116;SDS011;3600;48.568;7.870;2023-01-01T04:25:30;4.35;;;2.38;;
7116;SDS011;3600;48.568;7.870;2023-01-01T04:27:57;3.40;;;2.30;;
7116;SDS011;3600;48.568;7.870;2023-01-01T04:30:24;5.20;;;2.35;;
7116;SDS011;3600;48.568;7.870;2023-01-01T04:32:53;3.25;;;2.10;;
7116;SDS011;3600;48.568;7.870;2023-01-01T04:35:20;2.55;;;1.85;;
7116;SDS011;3600;48.568;7.870;2023-01-01T04:37:47;3.25;;;2.22;;
7116;SDS011;3600;48.568;7.870;2023-01-01T04:40:14;4.22;;;2.35;;
7116;SDS011;3600;48.568;7.870;2023-01-01T04:42:40;2.53;;;2.33;;
7116;SDS011;3600;48.568;7.870;2023-01-01T04:45:08;2.67;;;2.45;;
7116;SDS011;3600;48.568;7.870;2023-01-01T04:47:37;2.58;;;2.22;;
7116;SDS011;3600;48.568;7.870;2023-01-01T04:50:04;3.13;;;2.25;;
7116;SDS011;3600;48.568;7.870;2023-01-01T04:52:31;3.92;;;2.53;;
7116;SDS011;3600;48.568;7.870;2023-01-01T04:54:58;5.55;;;2.25;;
7116;SDS011;3600;48.568;7.870;2023-01-01T04:57:25;2.53;;;2.30;;
7116;SDS011;3600;48.568;7.870;2023-01-01T04:59:53;3.13;;;2.50;;
7116;SDS011;3600;48.568;7.870;2023-01-01T05:02:20;2.80;;;2.60;;
7116;SDS011;3600;48.568;7.870;2023-01-01T05:04:47;2.35;;;2.15;;
7116;SDS011;3600;48.568;7.870;2023-01-01T05:07:14;4.22;;;2.47;;
7116;SDS011;3600;48.568;7.870;2023-01-01T05:09:40;2.35;;;2.13;;
7116;SDS011;3600;48.568;7.870;2023-01-01T05:12:07;3.28;;;2.35;;
7116;SDS011;3600;48.568;7.870;2023-01-01T05:14:34;2.35;;;2.15;;
7116;SDS011;3600;48.568;7.870;2023-01-01T05:17:00;4.47;;;2.35;;
7116;SDS011;3600;48.568;7.870;2023-01-01T05:19:28;3.38;;;2.50;;
7116;SDS011;3600;48.568;7.870;2023-01-01T05:21:54;3.13;;;2.17;;
7116;SDS011;3600;48.568;7.870;2023-01-01T05:24:21;2.55;;;2.35;;
7116;SDS011;3600;48.568;7.870;2023-01-01T05:26:48;2.85;;;2.60;;
7116;SDS011;3600;48.568;7.870;2023-01-01T05:29:14;3.30;;;2.45;;
7116;SDS011;3600;48.568;7.870;2023-01-01T05:31:43;4.68;;;2.50;;
7116;SDS011;3600;48.568;7.870;2023-01-01T05:34:11;3.70;;;2.05;;
7116;SDS011;3600;48.568;7.870;2023-01-01T05:36:37;3.55;;;2.67;;
7116;SDS011;3600;48.568;7.870;2023-01-01T05:39:08;3.38;;;2.47;;
7116;SDS011;3600;48.568;7.870;2023-01-01T05:41:37;3.17;;;2.63;;
7116;SDS011;3600;48.568;7.870;2023-01-01T05:44:05;3.20;;;2.38;;
7116;SDS011;3600;48.568;7.870;2023-01-01T05:46:32;2.58;;;2.25;;
7116;SDS011;3600;48.568;7.870;2023-01-01T05:48:59;3.20;;;2.67;;
7116;SDS011;3600;48.568;7.870;2023-01-01T05:51:27;3.60;;;2.58;;
7116;SDS011;3600;48.568;7.870;2023-01-01T05:53:55;3.75;;;2.50;;
7116;SDS011;3600;48.568;7.870;2023-01-01T05:56:22;3.97;;;2.35;;
7116;SDS011;3600;48.568;7.870;2023-01-01T05:58:50;3.42;;;2.83;;
7116;SDS011;3600;48.568;7.870;2023-01-01T06:01:18;4.25;;;2.80;;
7116;SDS011;3600;48.568;7.870;2023-01-01T06:03:45;2.67;;;2.45;;
7116;SDS011;3600;48.568;7.870;2023-01-01T06:06:19;6.30;;;2.90;;
7116;SDS011;3600;48.568;7.870;2023-01-01T06:08:51;2.65;;;2.10;;
7116;SDS011;3600;48.568;7.870;2023-01-01T06:11:22;3.65;;;2.80;;
7116;SDS011;3600;48.568;7.870;2023-01-01T06:13:53;3.15;;;2.38;;
7116;SDS011;3600;48.568;7.870;2023-01-01T06:16:21;2.83;;;2.35;;
7116;SDS011;3600;48.568;7.870;2023-01-01T06:18:49;3.72;;;2.70;;
7116;SDS011;3600;48.568;7.870;2023-01-01T06:21:17;2.40;;;2.17;;
7116;SDS011;3600;48.568;7.870;2023-01-01T06:23:48;5.97;;;2.50;;
7116;SDS011;3600;48.568;7.870;2023-01-01T06:26:21;3.33;;;2.58;;
7116;SDS011;3600;48.568;7.870;2023-01-01T06:28:50;5.57;;;2.88;;
7116;SDS011;3600;48.568;7.870;2023-01-01T06:31:18;4.18;;;2.50;;
7116;SDS011;3600;48.568;7.870;2023-01-01T06:33:47;4.97;;;2.65;;
7116;SDS011;3600;48.568;7.870;2023-01-01T06:36:15;3.25;;;2.25;;
7116;SDS011;3600;48.568;7.870;2023-01-01T06:38:44;3.78;;;2.60;;
7116;SDS011;3600;48.568;7.870;2023-01-01T06:41:14;4.32;;;2.30;;
7116;SDS011;3600;48.568;7.870;2023-01-01T06:43:43;2.90;;;2.20;;
7116;SDS011;3600;48.568;7.870;2023-01-01T06:46:13;5.35;;;2.72;;
7116;SDS011;3600;48.568;7.870;2023-01-01T06:48:40;4.05;;;2.45;;
7116;SDS011;3600;48.568;7.870;2023-01-01T06:51:08;4.95;;;2.58;;
7116;SDS011;3600;48.568;7.870;2023-01-01T06:53:36;2.88;;;2.25;;
7116;SDS011;3600;48.568;7.870;2023-01-01T06:56:03;2.65;;;2.35;;
7116;SDS011;3600;48.568;7.870;2023-01-01T06:58:30;5.32;;;2.58;;
7116;SDS011;3600;48.568;7.870;2023-01-01T07:01:11;5.90;;;2.38;;
7116;SDS011;3600;48.568;7.870;2023-01-01T07:03:50;3.22;;;2.35;;
7116;SDS011;3600;48.568;7.870;2023-01-01T07:06:17;2.75;;;2.38;;
7116;SDS011;3600;48.568;7.870;2023-01-01T07:08:44;4.15;;;2.50;;
7116;SDS011;3600;48.568;7.870;2023-01-01T07:11:11;3.65;;;2.70;;
7116;SDS011;3600;48.568;7.870;2023-01-01T07:13:38;4.22;;;3.13;;
7116;SDS011;3600;48.568;7.870;2023-01-01T07:16:05;4.97;;;3.05;;
7116;SDS011;3600;48.568;7.870;2023-01-01T07:18:38;2.97;;;2.60;;
7116;SDS011;3600;48.568;7.870;2023-01-01T07:21:06;4.05;;;2.95;;
7116;SDS011;3600;48.568;7.870;2023-01-01T07:23:54;6.43;;;5.63;;
7116;SDS011;3600;48.568;7.870;2023-01-01T07:26:22;4.95;;;4.53;;
7116;SDS011;3600;48.568;7.870;2023-01-01T07:28:50;5.68;;;5.10;;
7116;SDS011;3600;48.568;7.870;2023-01-01T07:31:16;4.22;;;3.80;;
7116;SDS011;3600;48.568;7.870;2023-01-01T07:33:43;5.90;;;4.32;;
7116;SDS011;3600;48.568;7.870;2023-01-01T07:36:10;4.80;;;4.30;;
7116;SDS011;3600;48.568;7.870;2023-01-01T07:38:37;6.20;;;3.65;;
7116;SDS011;3600;48.568;7.870;2023-01-01T07:41:04;4.75;;;3.90;;
7116;SDS011;3600;48.568;7.870;2023-01-01T07:43:31;4.15;;;3.47;;
7116;SDS011;3600;48.568;7.870;2023-01-01T07:45:58;5.78;;;3.45;;
7116;SDS011;3600;48.568;7.870;2023-01-01T07:48:26;5.75;;;3.60;;
7116;SDS011;3600;48.568;7.870;2023-01-01T07:50:53;4.63;;;3.55;;
7116;SDS011;3600;48.568;7.870;2023-01-01T07:53:19;4.82;;;3.63;;
7116;SDS011;3600;48.568;7.870;2023-01-01T07:55:46;6.57;;;3.83;;
7116;SDS011;3600;48.568;7.870;2023-01-01T07:58:13;4.47;;;4.00;;
7116;SDS011;3600;48.568;7.870;2023-01-01T08:00:40;5.18;;;3.50;;
7116;SDS011;3600;48.568;7.870;2023-01-01T08:03:11;3.55;;;3.25;;
7116;SDS011;3600;48.568;7.870;2023-01-01T08:05:38;5.10;;;3.17;;
7116;SDS011;3600;48.568;7.870;2023-01-01T08:08:04;4.43;;;3.50;;
7116;SDS011;3600;48.568;7.870;2023-01-01T08:10:31;3.15;;;2.88;;
7116;SDS011;3600;48.568;7.870;2023-01-01T08:13:01;4.82;;;3.20;;
7116;SDS011;3600;48.568;7.870;2023-01-01T08:15:30;4.10;;;3.50;;
7116;SDS011;3600;48.568;7.870;2023-01-01T08:17:58;3.28;;;2.83;;
7116;SDS011;3600;48.568;7.870;2023-01-01T08:20:26;4.65;;;2.90;;
7116;SDS011;3600;48.568;7.870;2023-01-01T08:22:54;3.47;;;3.17;;
7116;SDS011;3600;48.568;7.870;2023-01-01T08:25:26;3.83;;;2.83;;
7116;SDS011;3600;48.568;7.870;2023-01-01T08:27:53;4.35;;;3.25;;
7116;SDS011;3600;48.568;7.870;2023-01-01T08:30:20;5.03;;;3.15;;
7116;SDS011;3600;48.568;7.870;2023-01-01T08:32:46;6.50;;;3.80;;
7116;SDS011;3600;48.568;7.870;2023-01-01T08:35:13;8.43;;;4.30;;
7116;SDS011;3600;48.568;7.870;2023-01-01T08:37:40;5.55;;;4.25;;
7116;SDS011;3600;48.568;7.870;2023-01-01T08:40:08;7.38;;;4.35;;
7116;SDS011;3600;48.568;7.870;2023-01-01T08:42:36;7.93;;;4.78;;
7116;SDS011;3600;48.568;7.870;2023-01-01T08:45:03;6.10;;;3.83;;
7116;SDS011;3600;48.568;7.870;2023-01-01T08:47:30;7.28;;;4.00;;
7116;SDS011;3600;48.568;7.870;2023-01-01T08:49:57;5.63;;;3.08;;
7116;SDS011;3600;48.568;7.870;2023-01-01T08:52:24;7.07;;;3.08;;
7116;SDS011;3600;48.568;7.870;2023-01-01T08:54:51;5.57;;;2.88;;
7116;SDS011;3600;48.568;7.870;2023-01-01T08:57:17;3.97;;;2.67;;
7116;SDS011;3600;48.568;7.870;2023-01-01T08:59:44;4.22;;;3.00;;
7116;SDS011;3600;48.568;7.870;2023-01-01T09:02:11;6.22;;;2.78;;
7116;SDS011;3600;48.568;7.870;2023-01-01T09:04:38;3.00;;;2.35;;
7116;SDS011;3600;48.568;7.870;2023-01-01T09:07:05;5.63;;;2.60;;
7116;SDS011;3600;48.568;7.870;2023-01-01T09:09:32;5.10;;;2.25;;
7116;SDS011;3600;48.568;7.870;2023-01-01T09:11:58;5.18;;;2.63;;
7116;SDS011;3600;48.568;7.870;2023-01-01T09:14:31;3.13;;;2.40;;
7116;SDS011;3600;48.568;7.870;2023-01-01T09:16:59;4.10;;;2.20;;
7116;SDS011;3600;48.568;7.870;2023-01-01T09:19:26;5.30;;;2.15;;
7116;SDS011;3600;48.568;7.870;2023-01-01T09:21:53;3.67;;;2.38;;
7116;SDS011;3600;48.568;7.870;2023-01-01T09:24:20;2.83;;;2.30;;
7116;SDS011;3600;48.568;7.870;2023-01-01T09:26:47;3.55;;;2.42;;
7116;SDS011;3600;48.568;7.870;2023-01-01T09:29:14;4.78;;;2.47;;
7116;SDS011;3600;48.568;7.870;2023-01-01T09:31:46;3.92;;;2.40;;
7116;SDS011;3600;48.568;7.870;2023-01-01T09:34:14;4.90;;;2.53;;
7116;SDS011;3600;48.568;7.870;2023-01-01T09:36:43;2.78;;;2.58;;
7116;SDS011;3600;48.568;7.870;2023-01-01T09:39:10;4.60;;;2.80;;
7116;SDS011;3600;48.568;7.870;2023-01-01T09:44:42;5.03;;;2.50;;
7116;SDS011;3600;48.568;7.870;2023-01-01T09:47:33;4.47;;;2.20;;
7116;SDS011;3600;48.568;7.870;2023-01-01T09:50:22;3.40;;;2.30;;
7116;SDS011;3600;48.568;7.870;2023-01-01T09:53:12;4.55;;;2.60;;
7116;SDS011;3600;48.568;7.870;2023-01-01T09:58:07;3.88;;;2.47;;
7116;SDS011;3600;48.568;7.870;2023-01-01T10:00:37;2.70;;;2.50;;
7116;SDS011;3600;48.568;7.870;2023-01-01T10:05:53;2.85;;;2.40;;
7116;SDS011;3600;48.568;7.870;2023-01-01T10:08:34;3.58;;;2.72;;
7116;SDS011;3600;48.568;7.870;2023-01-01T10:14:26;2.85;;;2.60;;
7116;SDS011;3600;48.568;7.870;2023-01-01T10:16:58;5.15;;;2.47;;
7116;SDS011;3600;48.568;7.870;2023-01-01T10:19:33;3.25;;;2.95;;
7116;SDS011;3600;48.568;7.870;2023-01-01T10:22:15;4.03;;;2.33;;
7116;SDS011;3600;48.568;7.870;2023-01-01T10:30:50;2.90;;;2.10;;
7116;SDS011;3600;48.568;7.870;2023-01-01T10:33:25;3.92;;;2.55;;
7116;SDS011;3600;48.568;7.870;2023-01-01T10:35:52;4.05;;;2.70;;
7116;SDS011;3600;48.568;7.870;2023-01-01T10:38:24;3.67;;;2.53;;
7116;SDS011;3600;48.568;7.870;2023-01-01T10:40:52;4.78;;;2.60;;
7116;SDS011;3600;48.568;7.870;2023-01-01T10:43:25;4.63;;;2.75;;
7116;SDS011;3600;48.568;7.870;2023-01-01T10:45:52;2.17;;;1.98;;
7116;SDS011;3600;48.568;7.870;2023-01-01T10:48:21;6.28;;;3.00;;
7116;SDS011;3600;48.568;7.870;2023-01-01T10:50:50;5.75;;;2.80;;
7116;SDS011;3600;48.568;7.870;2023-01-01T10:53:35;6.90;;;3.50;;
7116;SDS011;3600;48.568;7.870;2023-01-01T10:56:19;3.17;;;2.35;;
7116;SDS011;3600;48.568;7.870;2023-01-01T11:01:24;4.57;;;2.47;;
7116;SDS011;3600;48.568;7.870;2023-01-01T11:03:57;5.18;;;2.25;;
7116;SDS011;3600;48.568;7.870;2023-01-01T11:09:02;3.97;;;3.22;;
7116;SDS011;3600;48.568;7.870;2023-01-01T11:11:31;4.38;;;2.75;;
7116;SDS011;3600;48.568;7.870;2023-01-01T11:14:17;2.92;;;2.47;;
7116;SDS011;3600;48.568;7.870;2023-01-01T11:16:50;3.08;;;2.67;;
7116;SDS011;3600;48.568;7.870;2023-01-01T11:21:56;4.57;;;2.70;;
7116;SDS011;3600;48.568;7.870;2023-01-01T11:24:25;4.82;;;2.30;;
7116;SDS011;3600;48.568;7.870;2023-01-01T11:27:10;5.90;;;2.70;;
7116;SDS011;3600;48.568;7.870;2023-01-01T11:29:50;5.60;;;2.90;;
7116;SDS011;3600;48.568;7.870;2023-01-01T11:32:37;3.85;;;2.33;;
7116;SDS011;3600;48.568;7.870;2023-01-01T11:35:04;3.08;;;2.22;;
7116;SDS011;3600;48.568;7.870;2023-01-01T11:37:40;3.08;;;2.00;;
7116;SDS011;3600;48.568;7.870;2023-01-01T11:40:17;2.92;;;2.13;;
7116;SDS011;3600;48.568;7.870;2023-01-01T11:43:01;3.30;;;2.28;;
7116;SDS011;3600;48.568;7.870;2023-01-01T11:45:34;3.92;;;2.45;;
7116;SDS011;3600;48.568;7.870;2023-01-01T11:48:10;2.90;;;2.25;;
7116;SDS011;3600;48.568;7.870;2023-01-01T11:50:53;5.28;;;2.03;;
7116;SDS011;3600;48.568;7.870;2023-01-01T12:04:18;4.53;;;2.20;;
7116;SDS011;3600;48.568;7.870;2023-01-01T12:07:06;8.00;;;2.47;;
7116;SDS011;3600;48.568;7.870;2023-01-01T12:12:31;4.45;;;2.28;;
7116;SDS011;3600;48.568;7.870;2023-01-01T12:15:04;3.78;;;2.45;;
7116;SDS011;3600;48.568;7.870;2023-01-01T12:17:33;5.88;;;3.42;;
7116;SDS011;3600;48.568;7.870;2023-01-01T12:20:27;2.97;;;2.50;;
7116;SDS011;3600;48.568;7.870;2023-01-01T12:22:57;3.22;;;2.38;;
7116;SDS011;3600;48.568;7.870;2023-01-01T12:25:27;3.53;;;2.35;;
7116;SDS011;3600;48.568;7.870;2023-01-01T12:41:01;5.43;;;2.35;;
7116;SDS011;3600;48.568;7.870;2023-01-01T12:55:23;4.68;;;2.30;;
7116;SDS011;3600;48.568;7.870;2023-01-01T12:58:04;4.47;;;2.10;;
7116;SDS011;3600;48.568;7.870;2023-01-01T13:00:38;3.92;;;1.70;;
7116;SDS011;3600;48.568;7.870;2023-01-01T13:03:18;5.18;;;1.70;;
7116;SDS011;3600;48.568;7.870;2023-01-01T13:05:49;5.55;;;2.20;;
7116;SDS011;3600;48.568;7.870;2023-01-01T13:08:18;5.85;;;2.30;;
7116;SDS011;3600;48.568;7.870;2023-01-01T13:10:46;2.13;;;1.90;;
7116;SDS011;3600;48.568;7.870;2023-01-01T13:13:15;3.80;;;2.00;;
7116;SDS011;3600;48.568;7.870;2023-01-01T13:15:47;2.75;;;1.45;;
7116;SDS011;3600;48.568;7.870;2023-01-01T13:18:34;3.42;;;1.77;;
7116;SDS011;3600;48.568;7.870;2023-01-01T13:21:03;5.75;;;1.80;;
7116;SDS011;3600;48.568;7.870;2023-01-01T13:23:51;3.47;;;1.92;;
7116;SDS011;3600;48.568;7.870;2023-01-01T13:39:53;5.25;;;1.85;;
7116;SDS011;3600;48.568;7.870;2023-01-01T13:45:28;4.70;;;1.40;;
7116;SDS011;3600;48.568;7.870;2023-01-01T14:00:23;1.85;;;1.50;;
7116;SDS011;3600;48.568;7.870;2023-01-01T14:02:58;6.53;;;1.65;;
7116;SDS011;3600;48.568;7.870;2023-01-01T14:08:03;4.88;;;1.85;;
7116;SDS011;3600;48.568;7.870;2023-01-01T14:10:38;3.80;;;1.75;;
7116;SDS011;3600;48.568;7.870;2023-01-01T14:15:32;3.22;;;1.73;;
7116;SDS011;3600;48.568;7.870;2023-01-01T14:18:02;4.80;;;2.00;;
7116;SDS011;3600;48.568;7.870;2023-01-01T14:20:33;4.95;;;2.10;;
7116;SDS011;3600;48.568;7.870;2023-01-01T14:23:04;3.75;;;1.85;;
7116;SDS011;3600;48.568;7.870;2023-01-01T14:25:35;1.85;;;1.50;;
7116;SDS011;3600;48.568;7.870;2023-01-01T14:28:02;3.47;;;1.73;;
7116;SDS011;3600;48.568;7.870;2023-01-01T14:30:29;4.70;;;2.17;;
7116;SDS011;3600;48.568;7.870;2023-01-01T14:33:00;5.38;;;1.83;;
7116;SDS011;3600;48.568;7.870;2023-01-01T14:35:28;3.15;;;1.67;;
7116;SDS011;3600;48.568;7.870;2023-01-01T14:37:55;8.02;;;2.28;;
7116;SDS011;3600;48.568;7.870;2023-01-01T14:40:23;2.13;;;1.50;;
7116;SDS011;3600;48.568;7.870;2023-01-01T14:42:55;3.72;;;2.10;;
7116;SDS011;3600;48.568;7.870;2023-01-01T14:45:26;4.25;;;1.98;;
7116;SDS011;3600;48.568;7.870;2023-01-01T14:47:54;2.72;;;1.85;;
7116;SDS011;3600;48.568;7.870;2023-01-01T14:55:32;2.83;;;1.90;;
7116;SDS011;3600;48.568;7.870;2023-01-01T14:58:25;2.70;;;2.00;;
7116;SDS011;3600;48.568;7.870;2023-01-01T15:01:12;7.35;;;2.05;;
7116;SDS011;3600;48.568;7.870;2023-01-01T15:04:02;6.65;;;1.92;;
7116;SDS011;3600;48.568;7.870;2023-01-01T15:06:30;4.60;;;1.98;;
7116;SDS011;3600;48.568;7.870;2023-01-01T15:08:58;4.25;;;2.10;;
7116;SDS011;3600;48.568;7.870;2023-01-01T15:11:25;4.40;;;2.13;;
7116;SDS011;3600;48.568;7.870;2023-01-01T15:13:55;5.60;;;2.17;;
7116;SDS011;3600;48.568;7.870;2023-01-01T15:16:27;2.97;;;2.10;;
7116;SDS011;3600;48.568;7.870;2023-01-01T15:19:15;4.78;;;1.88;;
7116;SDS011;3600;48.568;7.870;2023-01-01T15:21:42;2.80;;;2.00;;
7116;SDS011;3600;48.568;7.870;2023-01-01T15:24:13;2.92;;;2.25;;
7116;SDS011;3600;48.568;7.870;2023-01-01T15:26:49;5.22;;;2.22;;
7116;SDS011;3600;48.568;7.870;2023-01-01T15:29:25;5.03;;;2.00;;
7116;SDS011;3600;48.568;7.870;2023-01-01T15:32:01;4.45;;;2.28;;
7116;SDS011;3600;48.568;7.870;2023-01-01T15:34:34;3.85;;;2.40;;
7116;SDS011;3600;48.568;7.870;2023-01-01T15:39:49;5.50;;;3.78;;
7116;SDS011;3600;48.568;7.870;2023-01-01T15:45:18;6.53;;;3.22;;
7116;SDS011;3600;48.568;7.870;2023-01-01T15:50:53;3.85;;;3.10;;
7116;SDS011;3600;48.568;7.870;2023-01-01T15:56:18;5.20;;;3.30;;
7116;SDS011;3600;48.568;7.870;2023-01-01T16:01:35;5.40;;;3.13;;
7116;SDS011;3600;48.568;7.870;2023-01-01T16:06:54;5.82;;;3.42;;
7116;SDS011;3600;48.568;7.870;2023-01-01T16:09:23;4.10;;;3.08;;
7116;SDS011;3600;48.568;7.870;2023-01-01T16:11:50;7.70;;;3.60;;
7116;SDS011;3600;48.568;7.870;2023-01-01T16:14:22;5.72;;;4.20;;
7116;SDS011;3600;48.568;7.870;2023-01-01T16:16:50;5.55;;;4.18;;
7116;SDS011;3600;48.568;7.870;2023-01-01T16:19:26;6.30;;;3.55;;
7116;SDS011;3600;48.568;7.870;2023-01-01T16:21:55;5.72;;;4.00;;
7116;SDS011;3600;48.568;7.870;2023-01-01T16:24:22;7.65;;;3.55;;
7116;SDS011;3600;48.568;7.870;2023-01-01T16:26:49;7.80;;;4.03;;
7116;SDS011;3600;48.568;7.870;2023-01-01T16:29:17;6.80;;;3.17;;
7116;SDS011;3600;48.568;7.870;2023-01-01T16:31:44;7.95;;;4.13;;
7116;SDS011;3600;48.568;7.870;2023-01-01T16:34:13;6.82;;;4.10;;
7116;SDS011;3600;48.568;7.870;2023-01-01T16:36:41;6.82;;;4.60;;
7116;SDS011;3600;48.568;7.870;2023-01-01T16:39:08;11.10;;;5.68;;
7116;SDS011;3600;48.568;7.870;2023-01-01T16:41:36;16.20;;;9.40;;
7116;SDS011;3600;48.568;7.870;2023-01-01T16:44:05;15.80;;;9.15;;
7116;SDS011;3600;48.568;7.870;2023-01-01T16:46:32;16.35;;;10.32;;
7116;SDS011;3600;48.568;7.870;2023-01-01T16:48:59;14.85;;;9.38;;
7116;SDS011;3600;48.568;7.870;2023-01-01T16:51:27;14.20;;;8.95;;
7116;SDS011;3600;48.568;7.870;2023-01-01T16:53:55;12.25;;;8.80;;
7116;SDS011;3600;48.568;7.870;2023-01-01T16:56:22;14.18;;;9.52;;
7116;SDS011;3600;48.568;7.870;2023-01-01T16:58:49;13.93;;;10.50;;
7116;SDS011;3600;48.568;7.870;2023-01-01T17:01:25;14.45;;;9.85;;
7116;SDS011;3600;48.568;7.870;2023-01-01T17:03:52;14.32;;;9.73;;
7116;SDS011;3600;48.568;7.870;2023-01-01T17:06:19;13.25;;;9.38;;
7116;SDS011;3600;48.568;7.870;2023-01-01T17:08:45;13.75;;;9.70;;
7116;SDS011;3600;48.568;7.870;2023-01-01T17:11:13;15.57;;;8.80;;
7116;SDS011;3600;48.568;7.870;2023-01-01T17:13:43;9.48;;;8.40;;
7116;SDS011;3600;48.568;7.870;2023-01-01T17:16:11;11.35;;;7.78;;
7116;SDS011;3600;48.568;7.870;2023-01-01T17:18:51;10.82;;;8.15;;
7116;SDS011;3600;48.568;7.870;2023-01-01T17:21:38;10.30;;;9.07;;
7116;SDS011;3600;48.568;7.870;2023-01-01T17:24:05;14.68;;;10.43;;
7116;SDS011;3600;48.568;7.870;2023-01-01T17:26:32;14.50;;;12.05;;
7116;SDS011;3600;48.568;7.870;2023-01-01T17:28:59;15.15;;;12.52;;
7116;SDS011;3600;48.568;7.870;2023-01-01T17:31:26;16.67;;;12.02;;
7116;SDS011;3600;48.568;7.870;2023-01-01T17:33:54;18.75;;;13.00;;
7116;SDS011;3600;48.568;7.870;2023-01-01T17:36:21;19.38;;;13.32;;
7116;SDS011;3600;48.568;7.870;2023-01-01T17:38:48;15.32;;;11.93;;
7116;SDS011;3600;48.568;7.870;2023-01-01T17:41:16;16.00;;;11.25;;
7116;SDS011;3600;48.568;7.870;2023-01-01T17:43:47;17.23;;;11.73;;
7116;SDS011;3600;48.568;7.870;2023-01-01T17:46:17;16.17;;;10.48;;
7116;SDS011;3600;48.568;7.870;2023-01-01T17:48:45;18.67;;;10.65;;
7116;SDS011;3600;48.568;7.870;2023-01-01T17:51:13;12.98;;;8.80;;
7116;SDS011;3600;48.568;7.870;2023-01-01T17:53:41;9.63;;;7.32;;
7116;SDS011;3600;48.568;7.870;2023-01-01T17:56:08;10.35;;;7.03;;
7116;SDS011;3600;48.568;7.870;2023-01-01T17:58:40;8.93;;;6.63;;
7116;SDS011;3600;48.568;7.870;2023-01-01T18:03:44;7.53;;;4.75;;
7116;SDS011;3600;48.568;7.870;2023-01-01T18:06:11;5.57;;;4.35;;
7116;SDS011;3600;48.568;7.870;2023-01-01T18:08:38;8.32;;;5.00;;